Terminal Aerodrome Forecast
Issued by NWS

Home | Current Version | Previous Version | Text Only | Print | Product List | Glossary On
Versions: 1 2 3 4 5 6 7 8 9 10 11 12 13 14
069
FTUS43 KSGF 202320
TAFJLN
TAF
KJLN 202320Z 2100/2124 22007KT P6SM SCT050
     FM210300 16007KT P6SM FEW250
     FM210800 19007KT P6SM BKN250
     FM211600 20011KT P6SM SCT200=

USA.gov is the U.S. government's official web portal to all federal, state and local government web resources and services.